Marble, Pennsylvania
Current Conditions -  °F | °C
As of 9:15 AM on Wednesday 28 Jan 2015 (Local Time) from KFKL Reporting Station
Few Clouds Few Clouds  
Wind Chill: -18°   Ceiling: Unl
Heat Index: -13°   Visibility: 10mi
Dew Point: -16°   Wind: 5mph
Humidity: 79%   Direction: 260°W
Pressure: 30.27"   Gusts: NA
Location:  41.34°N, 79.44°W
Report Text: KFKL 281415Z AUTO 26004KT 10SM FEW003 M13/M16 A3027 RMK AO1
Loading
Personal Weather Stations






























Interactive Weather Map New forecast layout! Learn more

10-Day Weather Forecast

Advertisements
Track Severe Weather on mobile